createdAt,value
2022-11-24T00:01:40.139Z,102361.10
2022-11-24T00:03:59.056Z,102358.38
2022-11-24T00:06:13.965Z,102358.40
2022-11-24T00:08:26.812Z,102352.86
2022-11-24T00:10:39.888Z,102358.58
2022-11-24T00:12:52.710Z,102360.65
2022-11-24T00:15:05.735Z,102361.08
2022-11-24T00:17:18.937Z,102366.15
2022-11-24T00:19:31.744Z,102373.71
2022-11-24T00:21:44.580Z,102377.31
2022-11-24T00:23:58.112Z,102376.64
2022-11-24T00:26:12.776Z,102373.45
2022-11-24T00:28:25.975Z,102369.93
2022-11-24T00:30:39.473Z,102369.98
2022-11-24T00:32:52.153Z,102370.62
2022-11-24T00:35:05.333Z,102372.73
2022-11-24T00:37:18.627Z,102372.61
2022-11-24T00:39:31.511Z,102371.23
2022-11-24T00:41:45.692Z,102369.38
2022-11-24T00:43:59.390Z,102374.60
2022-11-24T00:46:12.446Z,102382.45
2022-11-24T00:48:25.387Z,102388.85
2022-11-24T00:50:38.255Z,102394.26
2022-11-24T00:52:50.936Z,102401.62
2022-11-24T00:55:03.671Z,102400.17
2022-11-24T00:57:16.380Z,102402.86
2022-11-24T00:59:29.131Z,102394.37
2022-11-24T01:01:43.075Z,102388.41
2022-11-24T01:03:56.208Z,102389.10
2022-11-24T01:06:14.559Z,102391.67
2022-11-24T01:08:27.682Z,102390.20
2022-11-24T01:10:41.037Z,102384.32
2022-11-24T01:12:55.354Z,102378.14
2022-11-24T01:15:09.121Z,102374.80
2022-11-24T01:17:22.717Z,102368.69
2022-11-24T01:19:35.929Z,102377.85
2022-11-24T01:21:49.043Z,102387.52
2022-11-24T01:24:02.098Z,102400.31
2022-11-24T01:26:17.151Z,102406.49
2022-11-24T01:28:29.882Z,102408.19
2022-11-24T01:30:42.802Z,102412.52
2022-11-24T01:32:55.503Z,102410.09
2022-11-24T01:35:09.390Z,102398.41
2022-11-24T01:37:22.320Z,102394.90
2022-11-24T01:39:35.822Z,102386.08
2022-11-24T01:41:48.734Z,102384.09
2022-11-24T01:44:02.484Z,102380.91
2022-11-24T01:46:22.973Z,102375.10
2022-11-24T01:48:39.688Z,102376.35
2022-11-24T01:50:56.654Z,102375.39
2022-11-24T01:53:11.515Z,102375.83
2022-11-24T01:55:30.353Z,102371.38
2022-11-24T01:57:46.424Z,102364.79
2022-11-24T02:00:03.436Z,102358.46
2022-11-24T02:02:31.864Z,102358.17
2022-11-24T02:04:45.488Z,102358.71
2022-11-24T02:07:01.085Z,102356.55
2022-11-24T02:09:20.548Z,102351.00
2022-11-24T02:11:38.632Z,102347.11
2022-11-24T02:13:51.839Z,102349.83
2022-11-24T02:16:06.524Z,102347.54
2022-11-24T02:18:19.532Z,102355.08
2022-11-24T02:20:33.732Z,102359.16
2022-11-24T02:22:54.543Z,102362.10
2022-11-24T02:25:13.833Z,102360.75
2022-11-24T02:27:26.577Z,102356.16
2022-11-24T02:29:39.157Z,102353.17
2022-11-24T02:31:54.932Z,102352.59
2022-11-24T02:34:07.348Z,102346.05
2022-11-24T02:36:19.811Z,102337.66
2022-11-24T02:38:39.505Z,102336.68
2022-11-24T02:40:52.975Z,102336.33
2022-11-24T02:43:12.678Z,102336.15
2022-11-24T02:45:26.062Z,102335.91
2022-11-24T02:47:40.436Z,102330.98
2022-11-24T02:49:52.950Z,102327.95
2022-11-24T02:52:06.078Z,102331.05
2022-11-24T02:54:18.862Z,102332.63
2022-11-24T02:56:32.556Z,102338.97
2022-11-24T02:58:45.634Z,102332.30
2022-11-24T03:00:59.066Z,102328.16
2022-11-24T03:03:12.201Z,102317.55
2022-11-24T03:05:25.168Z,102321.54
2022-11-24T03:07:37.739Z,102320.09
2022-11-24T03:09:50.535Z,102322.10
2022-11-24T03:12:03.473Z,102323.34
2022-11-24T03:14:16.998Z,102320.73
2022-11-24T03:16:29.775Z,102321.48
2022-11-24T03:18:43.022Z,102331.48
2022-11-24T03:20:55.557Z,102338.68
2022-11-24T03:23:08.336Z,102347.48
2022-11-24T03:25:21.061Z,102344.09
2022-11-24T03:27:33.865Z,102337.48
2022-11-24T03:29:46.941Z,102339.19
2022-11-24T03:31:59.761Z,102347.02
2022-11-24T03:34:12.834Z,102348.89
2022-11-24T03:36:25.655Z,102349.39
2022-11-24T03:38:38.630Z,102346.91
2022-11-24T03:40:51.328Z,102347.96
2022-11-24T03:43:04.313Z,102351.45
2022-11-24T03:45:46.921Z,102350.83
2022-11-24T03:47:52.979Z,102347.43
2022-11-24T03:50:06.388Z,102340.27
2022-11-24T03:52:18.922Z,102335.02
2022-11-24T03:54:32.437Z,102332.02
2022-11-24T03:56:46.452Z,102329.04
2022-11-24T03:58:59.298Z,102326.14
2022-11-24T04:01:12.371Z,102327.91
2022-11-24T04:03:25.624Z,102337.57
2022-11-24T04:05:38.890Z,102345.73
2022-11-24T04:07:53.199Z,102356.02
2022-11-24T04:10:06.664Z,102356.01
2022-11-24T04:12:35.976Z,102350.55
2022-11-24T04:14:48.751Z,102347.59
2022-11-24T04:17:01.984Z,102348.18
2022-11-24T04:19:14.562Z,102347.33
2022-11-24T04:21:27.682Z,102346.21
2022-11-24T04:23:40.137Z,102334.98
2022-11-24T04:25:53.870Z,102330.71
2022-11-24T04:28:06.583Z,102330.63
2022-11-24T04:30:19.671Z,102330.85
2022-11-24T04:32:32.513Z,102331.60
2022-11-24T04:34:45.480Z,102327.05
2022-11-24T04:36:58.374Z,102323.79
2022-11-24T04:39:24.085Z,102321.86
2022-11-24T04:41:39.474Z,102317.36
2022-11-24T04:43:54.443Z,102318.06
2022-11-24T04:46:07.739Z,102319.17
2022-11-24T04:48:20.311Z,102316.81
2022-11-24T04:50:33.050Z,102320.41
2022-11-24T04:52:46.559Z,102320.95
2022-11-24T04:54:59.238Z,102320.14
2022-11-24T04:57:12.855Z,102316.45
2022-11-24T04:59:28.054Z,102309.74
2022-11-24T05:01:40.987Z,102307.93
2022-11-24T05:03:56.054Z,102311.48
2022-11-24T05:06:09.964Z,102310.31
2022-11-24T05:08:22.313Z,102304.70
2022-11-24T05:10:41.200Z,102302.28
2022-11-24T05:13:00.619Z,102301.48
2022-11-24T05:15:14.654Z,102306.66
2022-11-24T05:17:27.349Z,102308.23
2022-11-24T05:19:39.991Z,102311.98
2022-11-24T05:21:53.363Z,102314.06
2022-11-24T05:24:07.050Z,102313.42
2022-11-24T05:26:19.948Z,102318.49
2022-11-24T05:28:32.812Z,102323.23
2022-11-24T05:30:46.264Z,102323.45
2022-11-24T05:32:59.335Z,102326.80
2022-11-24T05:35:13.219Z,102325.40
2022-11-24T05:37:26.708Z,102322.98
2022-11-24T05:39:39.851Z,102322.75
2022-11-24T05:41:52.945Z,102324.39
2022-11-24T05:44:05.686Z,102325.69
2022-11-24T05:46:18.383Z,102323.72
2022-11-24T05:48:31.233Z,102324.05
2022-11-24T05:50:44.500Z,102332.70
2022-11-24T05:52:57.054Z,102332.26
2022-11-24T05:55:11.688Z,102329.24
2022-11-24T05:57:24.603Z,102331.05
2022-11-24T05:59:37.524Z,102330.85
2022-11-24T06:01:50.513Z,102329.55
2022-11-24T06:04:03.445Z,102327.13
2022-11-24T06:06:16.935Z,102323.17
2022-11-24T06:08:31.289Z,102322.42
2022-11-24T06:10:44.352Z,102331.59
2022-11-24T06:12:57.967Z,102328.66
2022-11-24T06:15:12.364Z,102334.05
2022-11-24T06:17:25.493Z,102334.02
2022-11-24T06:19:41.925Z,102337.25
2022-11-24T06:21:54.870Z,102332.81
2022-11-24T06:24:08.811Z,102333.84
2022-11-24T06:26:22.447Z,102334.84
2022-11-24T06:28:35.319Z,102332.13
2022-11-24T06:30:48.069Z,102331.32
2022-11-24T06:33:02.770Z,102333.11
2022-11-24T06:35:16.550Z,102331.61
2022-11-24T06:37:29.251Z,102326.00
2022-11-24T06:39:42.473Z,102328.23
2022-11-24T06:41:55.524Z,102317.20
2022-11-24T06:44:10.254Z,102321.23
2022-11-24T06:46:23.633Z,102320.38
2022-11-24T06:48:37.069Z,102322.98
2022-11-24T06:50:50.119Z,102325.81
2022-11-24T06:53:02.856Z,102322.45
2022-11-24T06:55:16.268Z,102325.14
2022-11-24T06:57:30.715Z,102320.23
2022-11-24T06:59:43.667Z,102325.69
2022-11-24T07:01:56.926Z,102321.61
2022-11-24T07:04:09.944Z,102326.66
2022-11-24T07:06:23.973Z,102328.30
2022-11-24T07:08:37.567Z,102332.87
2022-11-24T07:10:50.577Z,102327.45
2022-11-24T07:13:04.871Z,102321.78
2022-11-24T07:15:17.908Z,102323.59
2022-11-24T07:17:30.840Z,102321.48
2022-11-24T07:19:43.530Z,102320.42
2022-11-24T07:21:55.941Z,102318.32
2022-11-24T07:24:08.987Z,102314.63
2022-11-24T07:26:22.224Z,102311.75
2022-11-24T07:28:35.630Z,102310.09
2022-11-24T07:30:48.675Z,102308.65
2022-11-24T07:33:05.508Z,102314.95
2022-11-24T07:35:18.842Z,102313.64
2022-11-24T07:37:32.547Z,102315.11
2022-11-24T07:39:45.480Z,102319.40
2022-11-24T07:41:58.239Z,102322.02
2022-11-24T07:44:11.505Z,102323.74
2022-11-24T07:46:24.509Z,102330.81
2022-11-24T07:48:37.211Z,102332.55
2022-11-24T07:50:55.273Z,102329.21
2022-11-24T07:53:10.331Z,102325.55
2022-11-24T07:55:23.140Z,102329.86
2022-11-24T07:57:35.834Z,102336.98
2022-11-24T07:59:49.898Z,102337.89
2022-11-24T08:02:03.037Z,102342.52
2022-11-24T08:04:15.810Z,102345.85
2022-11-24T08:06:38.650Z,102346.20
2022-11-24T08:08:53.939Z,102354.29
2022-11-24T08:11:10.993Z,102357.11
2022-11-24T08:13:24.242Z,102352.23
2022-11-24T08:15:37.125Z,102349.17
2022-11-24T08:17:49.919Z,102350.09
2022-11-24T08:20:02.817Z,102345.74
2022-11-24T08:22:15.819Z,102345.09
2022-11-24T08:24:29.842Z,102342.40
2022-11-24T08:26:42.856Z,102340.30
2022-11-24T08:28:59.670Z,102335.50
2022-11-24T08:31:15.117Z,102325.41
2022-11-24T08:33:28.551Z,102317.88
2022-11-24T08:35:44.335Z,102315.98
2022-11-24T08:38:03.174Z,102315.98
2022-11-24T08:40:18.833Z,102318.20
2022-11-24T08:42:32.361Z,102317.73
2022-11-24T08:44:45.215Z,102314.96
2022-11-24T08:46:59.564Z,102316.64
2022-11-24T08:49:12.794Z,102318.42
2022-11-24T08:51:28.335Z,102319.80
2022-11-24T08:53:40.972Z,102316.33
2022-11-24T08:55:54.298Z,102316.60
2022-11-24T08:58:07.081Z,102318.61
2022-11-24T09:00:24.451Z,102314.09
2022-11-24T09:02:38.087Z,102314.14
2022-11-24T09:04:50.766Z,102306.34
2022-11-24T09:07:03.519Z,102313.34
2022-11-24T09:09:17.672Z,102317.23
2022-11-24T09:11:31.884Z,102321.48
2022-11-24T09:13:45.696Z,102324.33
2022-11-24T09:15:58.533Z,102324.60
2022-11-24T09:18:11.510Z,102326.98
2022-11-24T09:20:24.625Z,102321.89
2022-11-24T09:22:39.197Z,102322.39
2022-11-24T09:24:51.839Z,102321.11
2022-11-24T09:27:04.542Z,102325.12
2022-11-24T09:29:18.276Z,102323.13
2022-11-24T09:31:32.659Z,102327.16
2022-11-24T09:33:47.013Z,102330.96
2022-11-24T09:35:59.586Z,102336.60
2022-11-24T09:38:12.397Z,102339.48
2022-11-24T09:40:25.718Z,102340.86
2022-11-24T09:42:50.638Z,102341.45
2022-11-24T09:45:35.365Z,102343.48
2022-11-24T09:48:02.498Z,102353.73
2022-11-24T09:50:22.764Z,102355.20
2022-11-24T09:52:45.288Z,102361.08
2022-11-24T09:55:03.351Z,102366.12
2022-11-24T09:57:18.122Z,102362.65
2022-11-24T09:59:32.561Z,102360.75
2022-11-24T10:01:47.562Z,102358.66
2022-11-24T10:04:06.491Z,102355.83
2022-11-24T10:06:27.623Z,102365.02
2022-11-24T10:08:53.711Z,102374.81
2022-11-24T10:11:09.728Z,102375.45
2022-11-24T10:13:39.152Z,102381.83
2022-11-24T10:15:55.770Z,102382.98
2022-11-24T10:18:33.075Z,102384.17
2022-11-24T10:20:55.615Z,102378.25
2022-11-24T10:23:23.642Z,102378.58
2022-11-24T10:25:46.519Z,102387.27
2022-11-24T10:28:02.766Z,102390.62
2022-11-24T10:30:23.109Z,102395.27
2022-11-24T10:32:40.438Z,102395.23
2022-11-24T10:34:54.204Z,102393.27
2022-11-24T10:37:15.672Z,102394.67
2022-11-24T10:39:37.397Z,102400.05
2022-11-24T10:41:56.011Z,102399.56
2022-11-24T10:44:14.643Z,102400.48
2022-11-24T10:46:34.866Z,102393.98
2022-11-24T10:48:55.380Z,102387.00
2022-11-24T10:51:35.370Z,102384.55
2022-11-24T10:53:49.272Z,102383.79
2022-11-24T10:56:09.513Z,102385.84
2022-11-24T10:58:25.911Z,102390.88
2022-11-24T11:00:39.137Z,102384.92
2022-11-24T11:02:53.951Z,102385.84
2022-11-24T11:05:31.339Z,102386.77
2022-11-24T11:07:44.330Z,102382.92
2022-11-24T11:10:27.642Z,102378.10
2022-11-24T11:12:44.694Z,102374.55
2022-11-24T11:14:58.089Z,102371.02
2022-11-24T11:17:41.523Z,102371.12
2022-11-24T11:20:02.021Z,102365.42
2022-11-24T11:22:30.950Z,102369.88
2022-11-24T11:24:45.228Z,102362.17
2022-11-24T11:27:05.961Z,102360.45
2022-11-24T11:34:41.470Z,102357.73
2022-11-24T11:36:57.225Z,102352.75
2022-11-24T11:39:18.540Z,102350.80
2022-11-24T11:41:37.759Z,102348.52
2022-11-24T11:43:53.765Z,102350.31
2022-11-24T11:46:16.846Z,102350.33
2022-11-24T11:48:42.847Z,102347.17
2022-11-24T11:51:22.380Z,102338.14
2022-11-24T11:53:46.348Z,102335.86
2022-11-24T11:56:12.319Z,102336.13
2022-11-24T11:58:48.562Z,102333.41
2022-11-24T12:01:09.943Z,102335.72
2022-11-24T12:03:44.105Z,102341.20
2022-11-24T12:06:11.360Z,102333.27
2022-11-24T12:08:55.878Z,102329.52
2022-11-24T12:11:14.975Z,102322.25
2022-11-24T12:13:43.872Z,102323.16
2022-11-24T12:15:59.715Z,102328.85
2022-11-24T12:18:56.001Z,102325.54
2022-11-24T12:21:10.346Z,102325.26
2022-11-24T12:23:33.821Z,102321.25
2022-11-24T12:25:51.117Z,102317.15
2022-11-24T12:28:18.620Z,102319.15
2022-11-24T12:30:37.104Z,102321.11
2022-11-24T12:33:12.459Z,102320.98
2022-11-24T12:35:31.391Z,102319.21
2022-11-24T12:38:00.504Z,102311.84
2022-11-24T12:40:20.774Z,102311.73
2022-11-24T12:42:47.339Z,102305.13
2022-11-24T12:45:16.560Z,102301.49
2022-11-24T12:47:40.837Z,102293.01
2022-11-24T12:50:06.133Z,102293.38
2022-11-24T12:52:27.392Z,102294.03
2022-11-24T12:54:44.599Z,102295.80
2022-11-24T12:57:05.589Z,102292.13
2022-11-24T12:59:36.465Z,102292.30
2022-11-24T13:01:56.929Z,102287.25
2022-11-24T13:04:21.231Z,102290.77
2022-11-24T13:06:39.283Z,102295.30
2022-11-24T13:08:54.099Z,102296.41
2022-11-24T13:11:38.848Z,102293.68
2022-11-24T13:14:06.020Z,102300.11
2022-11-24T13:16:48.467Z,102294.54
2022-11-24T13:19:00.511Z,102289.21
2022-11-24T13:21:37.957Z,102290.29
2022-11-24T13:24:02.217Z,102290.23
2022-11-24T13:26:31.884Z,102291.52
2022-11-24T13:29:18.365Z,102291.79
2022-11-24T13:31:37.509Z,102294.23
2022-11-24T13:33:50.144Z,102290.05
2022-11-24T13:36:31.989Z,102289.98
2022-11-24T13:38:57.309Z,102291.24
2022-11-24T13:41:28.212Z,102293.66
2022-11-24T13:44:01.701Z,102298.24
2022-11-24T13:46:15.661Z,102298.23
2022-11-24T13:49:06.225Z,102301.10
2022-11-24T13:51:30.777Z,102297.43
2022-11-24T13:53:48.834Z,102300.98
2022-11-24T13:56:07.023Z,102303.84
2022-11-24T13:58:39.210Z,102305.89
2022-11-24T14:01:05.125Z,102302.27
2022-11-24T14:03:30.045Z,102307.56
2022-11-24T14:05:52.289Z,102309.66
2022-11-24T14:08:02.469Z,102314.56
2022-11-24T14:10:23.623Z,102317.74
2022-11-24T14:12:36.673Z,102325.01
2022-11-24T14:14:51.038Z,102318.16
2022-11-24T14:17:23.829Z,102316.63
2022-11-24T14:19:36.657Z,102313.44
2022-11-24T14:21:49.256Z,102317.55
2022-11-24T14:24:04.500Z,102307.50
2022-11-24T14:26:23.446Z,102309.52
2022-11-24T14:28:36.520Z,102308.49
2022-11-24T14:30:49.456Z,102309.79
2022-11-24T14:33:04.533Z,102308.22
2022-11-24T14:35:29.421Z,102303.34
2022-11-24T14:37:42.268Z,102296.75
2022-11-24T14:39:54.882Z,102295.77
2022-11-24T14:42:10.219Z,102297.84
2022-11-24T14:44:27.044Z,102297.64
2022-11-24T14:46:40.655Z,102295.93
2022-11-24T14:48:56.514Z,102293.89
2022-11-24T14:51:17.516Z,102294.93
2022-11-24T14:53:30.230Z,102292.05
2022-11-24T14:55:45.145Z,102283.66
2022-11-24T14:57:58.008Z,102286.64
2022-11-24T15:00:23.518Z,102292.57
2022-11-24T15:02:49.563Z,102297.16
2022-11-24T15:05:05.708Z,102298.23
2022-11-24T15:07:28.504Z,102298.98
2022-11-24T15:09:51.040Z,102292.05
2022-11-24T15:12:07.805Z,102294.25
2022-11-24T15:14:42.358Z,102300.19
2022-11-24T15:16:55.591Z,102303.05
2022-11-24T15:19:09.390Z,102300.25
2022-11-24T15:21:33.237Z,102296.80
2022-11-24T15:24:07.612Z,102293.39
2022-11-24T15:26:41.687Z,102292.14
2022-11-24T15:28:55.388Z,102288.73
2022-11-24T15:31:09.925Z,102290.29
2022-11-24T15:33:24.165Z,102286.84
2022-11-24T15:35:37.929Z,102286.84
2022-11-24T15:37:50.515Z,102286.96
2022-11-24T15:40:03.283Z,102288.63
2022-11-24T15:42:17.756Z,102282.48
2022-11-24T15:44:30.716Z,102286.90
2022-11-24T15:46:43.507Z,102294.25
2022-11-24T15:48:56.770Z,102299.97
2022-11-24T15:51:14.506Z,102301.23
2022-11-24T15:53:28.810Z,102297.34
2022-11-24T15:55:43.789Z,102299.95
2022-11-24T15:57:56.684Z,102303.20
2022-11-24T16:00:10.931Z,102309.16
2022-11-24T16:02:24.578Z,102316.02
2022-11-24T16:04:40.129Z,102320.32
2022-11-24T16:06:52.959Z,102318.64
2022-11-24T16:09:06.239Z,102318.92
2022-11-24T16:11:19.335Z,102321.45
2022-11-24T16:13:32.290Z,102319.59
2022-11-24T16:15:45.523Z,102325.64
2022-11-24T16:18:00.725Z,102326.30
2022-11-24T16:20:15.384Z,102322.14
2022-11-24T16:22:27.990Z,102325.82
2022-11-24T16:24:40.841Z,102322.06
2022-11-24T16:26:53.519Z,102319.14
2022-11-24T16:29:06.968Z,102316.02
2022-11-24T16:31:20.813Z,102314.33
2022-11-24T16:33:34.061Z,102314.02
2022-11-24T16:35:49.440Z,102305.36
2022-11-24T16:38:02.418Z,102302.65
2022-11-24T16:40:17.138Z,102300.77
2022-11-24T16:42:30.466Z,102298.13
2022-11-24T16:44:44.282Z,102302.03
2022-11-24T16:46:57.082Z,102297.75
2022-11-24T16:49:09.736Z,102292.73
2022-11-24T16:51:24.589Z,102295.59
2022-11-24T16:53:38.087Z,102292.70
2022-11-24T16:55:59.223Z,102292.53
2022-11-24T16:58:11.908Z,102291.98
2022-11-24T17:00:25.802Z,102291.98
2022-11-24T17:02:39.100Z,102283.31
2022-11-24T17:04:53.525Z,102284.30
2022-11-24T17:07:06.052Z,102288.42
2022-11-24T17:09:19.978Z,102289.48
2022-11-24T17:11:33.546Z,102294.73
2022-11-24T17:13:48.056Z,102289.30
2022-11-24T17:16:00.986Z,102290.84
2022-11-24T17:18:24.413Z,102290.11
2022-11-24T17:20:38.713Z,102286.09
2022-11-24T17:22:51.871Z,102286.65
2022-11-24T17:25:06.302Z,102288.83
2022-11-24T17:27:19.346Z,102293.35
2022-11-24T17:29:32.362Z,102292.13
2022-11-24T17:31:45.007Z,102290.61
2022-11-24T17:33:59.285Z,102287.38
2022-11-24T17:36:13.221Z,102287.51
2022-11-24T17:38:26.180Z,102284.20
2022-11-24T17:40:39.765Z,102284.77
2022-11-24T17:42:52.263Z,102289.27
2022-11-24T17:45:05.475Z,102286.51
2022-11-24T17:47:18.113Z,102288.86
2022-11-24T17:49:32.151Z,102288.17
2022-11-24T17:51:47.565Z,102287.95
2022-11-24T17:54:18.674Z,102287.91
2022-11-24T17:56:34.672Z,102280.96
2022-11-24T17:58:47.898Z,102284.77
2022-11-24T18:01:01.280Z,102277.23
2022-11-24T18:03:14.455Z,102276.90
2022-11-24T18:05:27.233Z,102281.96
2022-11-24T18:07:40.749Z,102279.08
2022-11-24T18:09:54.331Z,102278.71
2022-11-24T18:12:07.326Z,102273.46
2022-11-24T18:14:20.399Z,102270.97
2022-11-24T18:16:35.004Z,102268.86
2022-11-24T18:18:50.230Z,102262.20
2022-11-24T18:21:04.766Z,102261.48
2022-11-24T18:23:17.757Z,102258.05
2022-11-24T18:25:32.272Z,102257.45
2022-11-24T18:27:45.118Z,102259.15
2022-11-24T18:29:58.398Z,102251.54
2022-11-24T18:32:11.983Z,102247.32
2022-11-24T18:34:26.079Z,102239.46
2022-11-24T18:36:39.076Z,102241.26
2022-11-24T18:38:51.928Z,102240.10
2022-11-24T18:41:06.318Z,102237.77
2022-11-24T18:43:19.575Z,102235.61
2022-11-24T18:45:32.372Z,102235.59
2022-11-24T18:47:45.159Z,102233.15
2022-11-24T18:50:00.772Z,102225.38
2022-11-24T18:52:14.845Z,102225.75
2022-11-24T18:54:28.348Z,102220.04
2022-11-24T18:56:42.113Z,102218.49
2022-11-24T18:58:58.586Z,102216.35
2022-11-24T19:01:17.166Z,102212.17
2022-11-24T19:03:30.335Z,102210.23
2022-11-24T19:05:43.291Z,102203.13
2022-11-24T19:07:59.731Z,102201.05
2022-11-24T19:10:14.411Z,102190.98
2022-11-24T19:12:27.138Z,102189.30
2022-11-24T19:14:40.443Z,102183.69
2022-11-24T19:16:53.696Z,102179.75
2022-11-24T19:19:06.977Z,102168.29
2022-11-24T19:21:20.472Z,102164.14
2022-11-24T19:23:33.187Z,102160.46
2022-11-24T19:25:46.108Z,102165.06
2022-11-24T19:27:59.283Z,102159.50
2022-11-24T19:30:13.788Z,102153.16
2022-11-24T19:32:26.654Z,102149.03
2022-11-24T19:34:40.100Z,102144.81
2022-11-24T19:36:54.017Z,102141.49
2022-11-24T19:39:06.838Z,102133.73
2022-11-24T19:41:22.089Z,102123.00
2022-11-24T19:43:35.315Z,102118.36
2022-11-24T19:45:48.237Z,102112.23
2022-11-24T19:48:01.094Z,102103.48
2022-11-24T19:50:15.405Z,102099.48
2022-11-24T19:52:28.401Z,102092.91
2022-11-24T19:54:41.853Z,102089.19
2022-11-24T19:56:56.583Z,102082.90
2022-11-24T19:59:11.129Z,102082.02
2022-11-24T20:01:25.759Z,102077.29
2022-11-24T20:03:38.730Z,102073.65
2022-11-24T20:06:00.362Z,102070.16
2022-11-24T20:08:13.206Z,102064.56
2022-11-24T20:10:25.861Z,102060.09
2022-11-24T20:12:38.522Z,102056.81
2022-11-24T20:14:51.881Z,102053.65
2022-11-24T20:17:05.138Z,102053.40
2022-11-24T20:19:18.899Z,102046.23
2022-11-24T20:21:33.910Z,102049.51
2022-11-24T20:23:47.011Z,102042.16
2022-11-24T20:26:00.086Z,102040.02
2022-11-24T20:28:12.953Z,102033.11
2022-11-24T20:30:26.169Z,102027.29
2022-11-24T20:32:39.302Z,102024.93
2022-11-24T20:34:52.257Z,102021.77
2022-11-24T20:37:05.239Z,102019.32
2022-11-24T20:39:20.039Z,102015.01
2022-11-24T20:41:35.669Z,102020.44
2022-11-24T20:43:49.740Z,102014.86
2022-11-24T20:46:04.002Z,102011.72
2022-11-24T20:48:19.802Z,102011.41
2022-11-24T20:50:32.604Z,102006.90
2022-11-24T20:52:47.515Z,102002.83
2022-11-24T20:55:04.899Z,102003.90
2022-11-24T20:57:17.509Z,101997.59
2022-11-24T20:59:30.467Z,101995.36
2022-11-24T21:01:46.427Z,101992.25
2022-11-24T21:04:01.057Z,101990.65
2022-11-24T21:06:15.118Z,101985.29
2022-11-24T21:08:27.937Z,101984.71
2022-11-24T21:10:40.614Z,101983.41
2022-11-24T21:12:53.374Z,101982.95
2022-11-24T21:15:08.770Z,101984.00
2022-11-24T21:17:21.816Z,101974.72
2022-11-24T21:19:34.689Z,101973.96
2022-11-24T21:21:48.679Z,101969.33
2022-11-24T21:24:01.699Z,101962.69
2022-11-24T21:26:17.081Z,101963.33
2022-11-24T21:28:30.529Z,101962.49
2022-11-24T21:30:43.336Z,101959.79
2022-11-24T21:32:56.771Z,101961.42
2022-11-24T21:35:10.379Z,101954.79
2022-11-24T21:37:23.739Z,101956.63
2022-11-24T21:39:37.390Z,101959.39
2022-11-24T21:41:50.764Z,101952.40
2022-11-24T21:44:03.782Z,101956.14
2022-11-24T21:46:17.405Z,101957.01
2022-11-24T21:48:30.747Z,101952.27
2022-11-24T21:50:43.862Z,101954.97
2022-11-24T21:53:00.627Z,101956.69
2022-11-24T21:55:17.472Z,101955.84
2022-11-24T21:57:31.242Z,101950.73
2022-11-24T21:59:43.868Z,101948.71
2022-11-24T22:01:57.210Z,101945.61
2022-11-24T22:04:10.756Z,101946.69
2022-11-24T22:06:24.119Z,101947.88
2022-11-24T22:08:37.215Z,101947.66
2022-11-24T22:10:50.893Z,101946.23
2022-11-24T22:13:04.413Z,101943.34
2022-11-24T22:15:17.951Z,101949.35
2022-11-24T22:17:32.882Z,101946.80
2022-11-24T22:19:45.429Z,101949.07
2022-11-24T22:21:58.308Z,101946.33
2022-11-24T22:24:11.645Z,101945.66
2022-11-24T22:26:26.514Z,101936.15
2022-11-24T22:28:40.485Z,101936.42
2022-11-24T22:30:53.570Z,101929.80
2022-11-24T22:33:06.114Z,101919.52
2022-11-24T22:35:19.273Z,101914.45
2022-11-24T22:37:32.082Z,101912.77
2022-11-24T22:39:44.869Z,101912.89
2022-11-24T22:41:59.816Z,101917.81
2022-11-24T22:44:13.716Z,101919.08
2022-11-24T22:46:28.111Z,101921.28
2022-11-24T22:48:41.385Z,101911.09
2022-11-24T22:50:55.206Z,101912.58
2022-11-24T22:53:08.307Z,101912.48
2022-11-24T22:55:21.388Z,101917.96
2022-11-24T22:57:33.979Z,101910.34
2022-11-24T22:59:47.441Z,101909.27
2022-11-24T23:02:00.072Z,101913.06
2022-11-24T23:04:12.606Z,101906.84
2022-11-24T23:06:27.217Z,101909.77
2022-11-24T23:08:40.445Z,101906.96
2022-11-24T23:10:53.461Z,101900.25
2022-11-24T23:13:07.259Z,101904.39
2022-11-24T23:15:20.179Z,101897.49
2022-11-24T23:17:32.901Z,101891.03
2022-11-24T23:19:45.577Z,101887.38
2022-11-24T23:21:59.042Z,101883.55
2022-11-24T23:24:13.340Z,101877.36
2022-11-24T23:26:28.298Z,101869.97
2022-11-24T23:28:41.220Z,101864.78
2022-11-24T23:30:53.940Z,101857.98
2022-11-24T23:33:08.881Z,101860.40
2022-11-24T23:35:21.722Z,101860.71
2022-11-24T23:37:59.949Z,101860.40
2022-11-24T23:40:08.202Z,101855.71
2022-11-24T23:42:21.228Z,101849.17
2022-11-24T23:44:35.482Z,101847.02
2022-11-24T23:46:48.523Z,101849.17
2022-11-24T23:49:01.884Z,101850.39
2022-11-24T23:51:18.122Z,101852.79
2022-11-24T23:53:33.849Z,101850.43
2022-11-24T23:55:47.031Z,101852.89
2022-11-24T23:57:59.450Z,101852.98
